Time;durP1;ratioP1;P1;durP2;ratioP2;P2;SDS_P1;SDS_P2;PMS_P1;PMS_P2;Temp;Humidity;BMP_temperature;BMP_pressure;BME280_temperature;BME280_humidity;BME280_pressure;Samples;Min_cycle;Max_cycle;Signal;HPM_P1;HPM_P2
2023/01/12 00:02:09;;;;;;;5.68;1.90;;;;;;;7.63;100.00;100940.41;5109929;28;20138;-69
2023/01/12 00:04:35;;;;;;;8.93;2.40;;;;;;;7.58;100.00;100940.09;5109796;28;20062;-69
2023/01/12 00:07:00;;;;;;;6.47;3.75;;;;;;;7.60;100.00;100946.06;5108389;28;20439;-68
2023/01/12 00:09:26;;;;;;;5.70;2.70;;;;;;;7.62;100.00;100944.88;5109665;28;20031;-69
2023/01/12 00:11:52;;;;;;;8.63;2.17;;;;;;;7.63;100.00;100924.47;5109590;28;20556;-69
2023/01/12 00:14:17;;;;;;;9.43;2.25;;;;;;;7.65;100.00;100930.41;5110123;28;20035;-69
2023/01/12 00:16:43;;;;;;;4.22;1.80;;;;;;;7.67;100.00;100928.41;5108270;28;20463;-68
2023/01/12 00:19:16;;;;;;;7.72;2.72;;;;;;;7.64;100.00;100918.97;5109655;28;20043;-69
2023/01/12 00:24:25;;;;;;;4.32;1.60;;;;;;;7.68;100.00;100919.47;5109564;28;20122;-69
2023/01/12 00:26:52;;;;;;;5.53;2.50;;;;;;;7.72;100.00;100925.22;5109355;28;20023;-69
2023/01/12 00:29:18;;;;;;;11.82;1.90;;;;;;;7.74;100.00;100923.22;5109462;28;20108;-69
2023/01/12 00:31:44;;;;;;;6.00;2.38;;;;;;;7.74;100.00;100932.03;5109341;28;20118;-69
2023/01/12 00:34:09;;;;;;;9.02;2.70;;;;;;;7.74;100.00;100905.47;5108054;28;20434;-69
2023/01/12 00:36:35;;;;;;;9.07;2.22;;;;;;;7.77;100.00;100907.78;5109409;28;20456;-69
2023/01/12 00:39:00;;;;;;;8.20;2.05;;;;;;;7.76;100.00;100897.34;5109372;28;20038;-69
2023/01/12 00:46:58;;;;;;;15.18;2.90;;;;;;;7.73;100.00;100885.25;5109651;28;20042;-69
2023/01/12 00:49:24;;;;;;;9.45;1.73;;;;;;;7.73;100.00;100879.94;5109230;28;20043;-68
2023/01/12 00:51:49;;;;;;;8.95;2.67;;;;;;;7.76;100.00;100876.91;5107966;28;20031;-68
2023/01/12 00:54:14;;;;;;;6.45;2.60;;;;;;;7.75;100.00;100867.28;5109109;28;20073;-69
2023/01/12 00:56:40;;;;;;;10.00;2.42;;;;;;;7.73;100.00;100871.97;5113483;28;20028;-68
2023/01/12 00:59:05;;;;;;;10.13;2.25;;;;;;;7.74;100.00;100867.47;5112101;28;20067;-69
2023/01/12 01:01:32;;;;;;;10.38;3.28;;;;;;;7.77;100.00;100865.28;5111980;28;20039;-69
2023/01/12 01:03:58;;;;;;;9.15;2.47;;;;;;;7.77;100.00;100873.25;5113385;28;20027;-69
2023/01/12 01:06:23;;;;;;;4.22;2.25;;;;;;;7.79;100.00;100863.28;5112135;28;20058;-69
2023/01/12 01:08:49;;;;;;;13.75;2.97;;;;;;;7.73;100.00;100857.84;5113690;28;20019;-68
2023/01/12 01:11:15;;;;;;;7.95;1.90;;;;;;;7.73;100.00;100853.38;5113269;28;20076;-69
2023/01/12 01:13:44;;;;;;;13.45;3.80;;;;;;;7.74;100.00;100848.91;5113116;28;20027;-69
2023/01/12 01:16:13;;;;;;;6.55;2.80;;;;;;;7.73;100.00;100855.19;5111896;28;20534;-68
2023/01/12 01:18:39;;;;;;;9.02;2.92;;;;;;;7.71;100.00;100859.88;5111985;28;20431;-69
2023/01/12 01:21:04;;;;;;;12.07;3.10;;;;;;;7.69;100.00;100852.91;5113053;28;20055;-68
2023/01/12 01:23:33;;;;;;;7.03;2.08;;;;;;;7.71;100.00;100855.38;5112894;28;20066;-69
2023/01/12 01:26:04;;;;;;;4.63;2.80;;;;;;;7.73;100.00;100853.38;5112898;28;20374;-69
2023/01/12 01:28:29;;;;;;;12.02;3.25;;;;;;;7.74;100.00;100854.22;5112800;28;20470;-69
2023/01/12 01:31:04;;;;;;;10.02;2.47;;;;;;;7.71;100.00;100842.13;5112834;28;20028;-69
2023/01/12 01:33:30;;;;;;;14.30;2.30;;;;;;;7.73;100.00;100836.63;5112862;28;20027;-69
2023/01/12 01:35:56;;;;;;;6.75;2.97;;;;;;;7.73;100.00;100831.31;5112787;28;20128;-69
2023/01/12 01:38:21;;;;;;;6.75;2.42;;;;;;;7.71;100.00;100834.16;5111327;28;20015;-68
2023/01/12 01:40:47;;;;;;;11.60;3.00;;;;;;;7.72;100.00;100832.31;5112510;28;20031;-69
2023/01/12 01:43:18;;;;;;;7.10;2.08;;;;;;;7.71;100.00;100822.72;5112571;28;20076;-69
2023/01/12 01:45:47;;;;;;;6.80;2.23;;;;;;;7.68;100.00;100830.03;5112603;28;20081;-69
2023/01/12 01:48:15;;;;;;;12.43;4.22;;;;;;;7.67;100.00;100823.03;5112399;28;20024;-69
2023/01/12 01:50:48;;;;;;;9.55;2.83;;;;;;;7.66;100.00;100829.38;5110904;28;20525;-69
2023/01/12 01:53:20;;;;;;;8.85;3.13;;;;;;;7.62;100.00;100824.59;5112321;28;20429;-69
2023/01/12 01:55:47;;;;;;;;;;;;;;;7.66;100.00;100828.56;5111492;28;20640;-69
2023/01/12 01:58:26;;;;;;;14.15;4.13;;;;;;;7.60;100.00;100808.84;5112274;28;20281;-69
2023/01/12 02:00:52;;;;;;;9.43;3.08;;;;;;;7.59;100.00;100801.06;5112310;28;20080;-69
2023/01/12 02:03:18;;;;;;;11.05;2.42;;;;;;;7.58;100.00;100805.56;5110870;28;20031;-69
2023/01/12 02:05:46;;;;;;;7.40;3.15;;;;;;;7.58;100.00;100799.44;5111602;28;20051;-69
2023/01/12 02:08:18;;;;;;;11.30;2.55;;;;;;;7.53;100.00;100789.34;5112051;28;20024;-69
2023/01/12 02:10:44;;;;;;;14.95;2.88;;;;;;;7.57;100.00;100787.13;5101365;28;20443;-79
2023/01/12 02:16:19;;;;;;;5.72;1.65;;;;;;;7.53;100.00;100778.72;5091668;28;20074;-79
2023/01/12 02:19:05;;;;;;;9.23;2.78;;;;;;;7.55;100.00;100771.41;5107888;27;20157;-79
2023/01/12 02:21:49;;;;;;;12.45;4.00;;;;;;;7.53;100.00;100783.22;5092408;28;20490;-79
2023/01/12 02:24:48;;;;;;;8.38;2.30;;;;;;;7.52;100.00;100777.09;5093308;28;20103;-79
2023/01/12 02:27:21;;;;;;;8.70;3.17;;;;;;;7.55;100.00;100759.97;5105855;28;20085;-80
2023/01/12 02:30:23;;;;;;;15.27;3.80;;;;;;;7.54;100.00;100768.91;5104560;28;20023;-80
2023/01/12 02:32:55;;;;;;;16.50;3.83;;;;;;;7.53;100.00;100759.31;5104611;28;20084;-80
2023/01/12 02:35:46;;;;;;;11.75;3.53;;;;;;;7.55;100.00;100774.06;5111614;28;20078;-80
2023/01/12 02:38:45;;;;;;;11.00;2.50;;;;;;;7.57;100.00;100760.59;5104327;28;20020;-79
2023/01/12 02:42:39;;;;;;;19.15;4.03;;;;;;;7.58;100.00;100754.31;5094245;28;20120;-79
2023/01/12 02:44:18;;;;;;;16.83;4.40;;;;;;;7.59;100.00;100743.50;5108761;28;20039;-79
2023/01/12 02:46:49;;;;;;;7.45;2.60;;;;;;;7.61;100.00;100732.72;5100948;28;20023;-79
2023/01/12 02:49:19;;;;;;;16.63;3.47;;;;;;;7.64;100.00;100733.16;5104957;28;20135;-79
2023/01/12 02:51:53;;;;;;;12.98;2.38;;;;;;;7.64;100.00;100732.34;5091904;28;20024;-80
2023/01/12 02:54:20;;;;;;;11.38;2.63;;;;;;;7.69;100.00;100736.09;5091743;28;20394;-79
2023/01/12 02:56:49;;;;;;;15.13;3.88;;;;;;;7.72;100.00;100737.56;5110659;28;20027;-79
2023/01/12 02:59:29;;;;;;;8.90;2.75;;;;;;;7.73;100.00;100725.13;5092813;28;20378;-78
2023/01/12 03:02:22;;;;;;;13.73;3.33;;;;;;;7.75;100.00;100723.13;5091566;28;20226;-79
2023/01/12 03:04:47;;;;;;;9.40;1.98;;;;;;;7.74;100.00;100722.28;5088573;28;20067;-79
2023/01/12 03:07:12;;;;;;;8.70;2.33;;;;;;;7.79;100.00;100705.81;5090225;28;20067;-79
2023/01/12 03:09:45;;;;;;;11.60;2.92;;;;;;;7.80;100.00;100710.94;5091537;28;20475;-79
2023/01/12 03:12:14;;;;;;;10.90;2.78;;;;;;;7.76;100.00;100701.72;5094220;28;20493;-79
2023/01/12 03:14:44;;;;;;;6.97;2.00;;;;;;;7.73;100.00;100699.41;5094597;28;20024;-79
2023/01/12 03:17:16;;;;;;;10.82;2.25;;;;;;;7.75;100.00;100685.94;5090361;28;20620;-80
2023/01/12 03:19:44;;;;;;;17.10;4.13;;;;;;;7.75;100.00;100680.63;5091428;28;20478;-78
2023/01/12 03:22:12;;;;;;;13.27;2.35;;;;;;;7.67;100.00;100670.94;5110781;28;20153;-79
2023/01/12 03:24:42;;;;;;;11.05;2.88;;;;;;;7.73;100.00;100685.28;5110503;28;20390;-79
2023/01/12 03:27:23;;;;;;;9.05;3.50;;;;;;;7.72;100.00;100665.91;5095018;28;20027;-79
2023/01/12 03:29:55;;;;;;;9.38;2.30;;;;;;;7.73;100.00;100672.03;5110589;28;20027;-79
2023/01/12 03:32:21;;;;;;;16.13;4.28;;;;;;;7.63;100.00;100643.94;5110117;28;20042;-79
2023/01/12 03:34:47;;;;;;;13.10;2.05;;;;;;;7.72;100.00;100655.28;5089625;28;20391;-79
2023/01/12 03:37:25;;;;;;;8.77;3.53;;;;;;;7.78;100.00;100659.88;5105652;28;20031;-79
2023/01/12 03:40:03;;;;;;;13.68;2.80;;;;;;;7.73;100.00;100651.63;5075707;28;20023;-79
2023/01/12 03:42:46;;;;;;;8.88;2.60;;;;;;;7.68;100.00;100643.41;5109001;28;20088;-79
2023/01/12 03:45:32;;;;;;;8.80;2.83;;;;;;;7.71;100.00;100648.34;5110110;28;20023;-79
2023/01/12 03:48:15;;;;;;;8.82;2.42;;;;;;;7.69;100.00;100631.75;5107899;28;20195;-79
2023/01/12 03:50:46;;;;;;;7.50;2.55;;;;;;;7.71;100.00;100629.75;5100258;28;20127;-79
2023/01/12 03:53:15;;;;;;;7.55;2.97;;;;;;;7.69;100.00;100629.09;5090388;28;20467;-79
2023/01/12 03:55:42;;;;;;;6.70;2.58;;;;;;;7.67;100.00;100616.00;5090653;28;20028;-79
2023/01/12 03:58:07;;;;;;;9.48;2.55;;;;;;;7.66;100.00;100606.41;5090405;28;20483;-79
2023/01/12 04:00:33;;;;;;;15.65;3.90;;;;;;;7.62;100.00;100593.69;5103076;28;20051;-79
2023/01/12 04:03:03;;;;;;;9.82;1.85;;;;;;;7.62;100.00;100586.56;5108711;28;20490;-79
2023/01/12 04:05:29;;;;;;;4.57;2.15;;;;;;;7.63;100.00;100584.72;5100795;28;20055;-79
2023/01/12 04:07:54;;;;;;;6.68;1.98;;;;;;;7.60;100.00;100575.31;5108355;28;20515;-78
2023/01/12 04:10:20;;;;;;;12.75;2.70;;;;;;;7.62;100.00;100560.03;5109740;28;20635;-79
2023/01/12 04:12:45;;;;;;;14.25;2.40;;;;;;;7.59;100.00;100544.44;5103093;28;20040;-79
2023/01/12 04:15:10;;;;;;;5.47;2.00;;;;;;;7.60;100.00;100556.72;5089931;28;20035;-79
2023/01/12 04:17:36;;;;;;;5.35;2.15;;;;;;;7.60;100.00;100546.09;5109679;28;20104;-79
2023/01/12 04:20:02;;;;;;;4.30;1.65;;;;;;;7.60;100.00;100538.16;5109573;28;20115;-78
2023/01/12 04:22:43;;;;;;;8.40;1.83;;;;;;;7.58;100.00;100529.53;5109630;28;20483;-79
2023/01/12 04:25:20;;;;;;;20.27;3.90;;;;;;;7.56;100.00;100504.19;5109469;28;20054;-79
2023/01/12 04:28:03;;;;;;;6.82;2.10;;;;;;;7.55;100.00;100510.53;5109270;28;20030;-78
2023/01/12 04:30:30;;;;;;;6.28;1.55;;;;;;;7.54;100.00;100490.28;5100930;28;20049;-79
2023/01/12 04:32:57;;;;;;;8.57;2.50;;;;;;;7.52;100.00;100484.31;5109447;28;20043;-78
2023/01/12 04:35:23;;;;;;;13.13;2.28;;;;;;;7.56;100.00;100491.75;5103707;28;20043;-78
2023/01/12 04:37:49;;;;;;;12.30;3.10;;;;;;;7.58;100.00;100484.44;5095810;28;20375;-78
2023/01/12 04:40:16;;;;;;;6.53;2.45;;;;;;;7.58;100.00;100473.81;5109437;28;20031;-79
2023/01/12 04:43:06;;;;;;;8.88;1.90;;;;;;;7.51;100.00;100454.31;5109585;28;20035;-79
2023/01/12 04:45:34;;;;;;;14.02;2.03;;;;;;;7.56;100.00;100451.13;5109351;28;20529;-78
2023/01/12 04:48:09;;;;;;;8.02;2.30;;;;;;;7.56;100.00;100432.53;5102389;28;20051;-79
2023/01/12 04:50:35;;;;;;;4.45;1.83;;;;;;;7.55;100.00;100428.25;5109197;28;20490;-78
2023/01/12 04:53:01;;;;;;;7.32;2.05;;;;;;;7.56;100.00;100438.66;5090875;28;20038;-78
2023/01/12 04:55:27;;;;;;;7.70;2.15;;;;;;;7.56;100.00;100433.34;5109555;28;20027;-78
2023/01/12 04:57:52;;;;;;;9.73;2.28;;;;;;;7.58;100.00;100419.91;5108023;28;20474;-79
2023/01/12 05:00:18;;;;;;;16.05;3.03;;;;;;;7.58;100.00;100439.31;5109357;28;20027;-78
2023/01/12 05:02:43;;;;;;;12.02;1.73;;;;;;;7.59;100.00;100432.16;5109118;28;20027;-78
2023/01/12 05:05:09;;;;;;;6.85;1.75;;;;;;;7.60;100.00;100428.53;5107789;28;20445;-78
2023/01/12 05:07:34;;;;;;;10.80;2.40;;;;;;;7.60;100.00;100394.03;5109153;28;20046;-78
2023/01/12 05:12:43;;;;;;;6.55;2.33;;;;;;;7.59;100.00;100418.91;5089637;28;20054;-78
2023/01/12 05:15:09;;;;;;;3.53;1.58;;;;;;;7.58;100.00;100409.31;5089658;28;20119;-78
2023/01/12 05:17:34;;;;;;;7.35;1.30;;;;;;;7.59;100.00;100411.75;5089693;28;20044;-78
2023/01/12 05:20:00;;;;;;;9.93;1.73;;;;;;;7.59;100.00;100393.16;5093046;28;20039;-79
2023/01/12 05:22:25;;;;;;;4.13;2.08;;;;;;;7.59;100.00;100411.75;5109020;28;20027;-78
2023/01/12 05:24:50;;;;;;;10.38;1.88;;;;;;;7.63;100.00;100423.66;5105554;28;20074;-79
2023/01/12 05:27:16;;;;;;;6.18;1.73;;;;;;;7.63;100.00;100446.72;5091653;28;20035;-79
2023/01/12 05:29:42;;;;;;;4.00;1.45;;;;;;;7.59;100.00;100434.81;5089485;28;20067;-79
2023/01/12 05:32:07;;;;;;;12.05;2.83;;;;;;;7.61;100.00;100424.84;5089437;28;20052;-78
2023/01/12 05:34:32;;;;;;;15.55;2.10;;;;;;;7.61;100.00;100398.31;5089747;28;20111;-79
2023/01/12 05:36:58;;;;;;;13.23;2.30;;;;;;;7.63;100.00;100390.97;5089528;28;20062;-79
2023/01/12 05:39:23;;;;;;;3.40;1.25;;;;;;;7.61;100.00;100393.00;5104939;28;20073;-78
2023/01/12 05:44:33;;;;;;;8.35;2.17;;;;;;;7.62;100.00;100386.66;5111871;28;20508;-79
2023/01/12 05:46:58;;;;;;;3.13;1.48;;;;;;;7.65;100.00;100395.09;5095764;28;20035;-78
2023/01/12 05:49:23;;;;;;;1.85;1.00;;;;;;;7.64;100.00;100400.56;5111044;28;20559;-78
2023/01/12 05:51:49;;;;;;;8.15;2.35;;;;;;;7.71;100.00;100404.13;5112693;28;20044;-78
2023/01/12 05:54:14;;;;;;;7.95;2.28;;;;;;;7.69;100.00;100395.53;5101666;28;20056;-78
2023/01/12 05:56:39;;;;;;;4.45;1.60;;;;;;;7.65;100.00;100400.41;5092839;28;20031;-78
2023/01/12 05:59:05;;;;;;;9.45;1.92;;;;;;;7.61;100.00;100393.00;5092873;28;20035;-78
2023/01/12 06:01:30;;;;;;;6.13;2.28;;;;;;;7.64;100.00;100389.97;5092715;28;20057;-78
2023/01/12 06:04:00;;;;;;;10.25;1.77;;;;;;;7.64;100.00;100382.00;5092688;28;20122;-78
2023/01/12 06:06:31;;;;;;;5.68;1.33;;;;;;;7.64;100.00;100376.69;5099649;28;20505;-69
2023/01/12 06:08:58;;;;;;;3.28;1.52;;;;;;;7.63;100.00;100375.88;5112119;28;20032;-70
2023/01/12 06:14:08;;;;;;;2.13;1.13;;;;;;;7.68;100.00;100388.59;5111110;28;20511;-70
2023/01/12 06:16:36;;;;;;;2.33;1.73;;;;;;;7.71;100.00;100392.69;5110403;28;20023;-69
2023/01/12 06:19:02;;;;;;;9.20;2.25;;;;;;;7.69;100.00;100384.91;5110551;28;20500;-70
2023/01/12 06:21:27;;;;;;;5.95;1.63;;;;;;;7.69;100.00;100376.94;5110485;28;20031;-70
2023/01/12 06:23:52;;;;;;;6.70;2.10;;;;;;;7.73;100.00;100380.88;5111593;28;20043;-69
2023/01/12 06:26:18;;;;;;;5.93;1.80;;;;;;;7.76;100.00;100383.16;5111760;28;20031;-70
2023/01/12 06:28:43;;;;;;;5.75;1.45;;;;;;;7.75;100.00;100383.31;5111639;28;20032;-70
2023/01/12 06:31:12;;;;;;;11.05;1.75;;;;;;;7.76;100.00;100356.59;5111655;28;20036;-70
2023/01/12 06:33:38;;;;;;;5.22;1.05;;;;;;;7.74;100.00;100374.53;5111562;28;20046;-70
2023/01/12 06:36:04;;;;;;;5.18;1.00;;;;;;;7.84;100.00;100390.16;5110022;28;20541;-69
2023/01/12 06:38:32;;;;;;;2.30;1.10;;;;;;;7.80;100.00;100372.97;5111813;28;20032;-70
2023/01/12 06:41:01;;;;;;;4.75;0.88;;;;;;;7.87;100.00;100384.47;5110085;28;20038;-69
2023/01/12 06:43:27;;;;;;;4.75;1.42;;;;;;;7.86;100.00;100378.34;5111520;28;20031;-70
2023/01/12 06:45:53;;;;;;;2.08;1.25;;;;;;;7.91;100.00;100388.38;5111605;28;20034;-70
2023/01/12 06:48:21;;;;;;;1.98;1.10;;;;;;;7.87;100.00;100376.50;5111467;28;20378;-70
2023/01/12 06:50:46;;;;;;;1.67;1.08;;;;;;;7.90;100.00;100392.06;5111174;28;20054;-70
2023/01/12 06:53:12;;;;;;;2.30;0.88;;;;;;;7.85;100.00;100386.50;5111111;28;20031;-70
2023/01/12 06:55:37;;;;;;;4.60;2.40;;;;;;;7.72;100.00;100357.16;5109912;28;20032;-70
2023/01/12 06:58:03;;;;;;;3.70;1.48;;;;;;;7.94;100.00;100395.13;5109718;28;20028;-70
2023/01/12 07:00:30;;;;;;;5.40;1.70;;;;;;;7.91;100.00;100377.75;5111136;28;20106;-70
2023/01/12 07:02:56;;;;;;;2.63;1.20;;;;;;;7.97;100.00;100395.59;5111478;28;20415;-70
2023/01/12 07:05:21;;;;;;;3.60;1.10;;;;;;;7.98;100.00;100383.13;5111281;28;20028;-70
2023/01/12 07:07:47;;;;;;;3.78;1.50;;;;;;;8.00;100.00;100389.91;5109530;28;20072;-69
2023/01/12 07:10:12;;;;;;;2.95;0.70;;;;;;;8.00;100.00;100379.28;5092625;28;20119;-70
2023/01/12 07:12:38;;;;;;;5.53;1.70;;;;;;;8.01;100.00;100380.09;5110772;28;20035;-70
2023/01/12 07:15:04;;;;;;;2.47;0.90;;;;;;;8.02;100.00;100387.06;5109606;28;20038;-70
2023/01/12 07:17:30;;;;;;;5.75;1.63;;;;;;;8.03;100.00;100383.38;5110793;28;20058;-69
2023/01/12 07:19:56;;;;;;;2.67;1.20;;;;;;;7.99;100.00;100382.97;5110710;28;20471;-70
2023/01/12 07:22:22;;;;;;;3.70;2.08;;;;;;;8.03;100.00;100394.81;5110721;28;20032;-70
2023/01/12 07:24:48;;;;;;;2.25;0.90;;;;;;;8.05;100.00;100387.50;5090868;28;20028;-70
2023/01/12 07:27:13;;;;;;;5.90;1.05;;;;;;;8.08;100.00;100388.94;5091117;28;20507;-70
2023/01/12 07:29:39;;;;;;;4.00;1.30;;;;;;;8.05;100.00;100403.44;5090368;28;20054;-70
2023/01/12 07:32:04;;;;;;;5.13;1.10;;;;;;;8.08;100.00;100394.25;5091064;28;20595;-70
2023/01/12 07:34:31;;;;;;;2.83;1.20;;;;;;;8.11;100.00;100393.88;5089469;28;20032;-70
2023/01/12 07:36:56;;;;;;;1.38;1.10;;;;;;;8.09;100.00;100382.59;5089410;28;20024;-70
2023/01/12 07:39:22;;;;;;;1.27;0.93;;;;;;;8.07;100.00;100400.59;5089496;28;20566;-70
2023/01/12 07:44:31;;;;;;;5.00;1.05;;;;;;;8.06;100.00;100407.72;5091041;28;20039;-70
2023/01/12 07:46:58;;;;;;;2.42;1.00;;;;;;;8.09;100.00;100422.44;5090587;28;20032;-70
2023/01/12 07:49:25;;;;;;;4.35;1.00;;;;;;;8.05;100.00;100413.22;5090366;28;20105;-70
2023/01/12 07:51:53;;;;;;;6.50;2.58;;;;;;;8.11;100.00;100421.25;5090747;28;20050;-70
2023/01/12 07:54:18;;;;;;;2.15;1.05;;;;;;;8.13;100.00;100418.41;5089262;28;20043;-74
2023/01/12 07:56:43;;;;;;;6.10;1.23;;;;;;;8.11;100.00;100415.13;5090499;28;20504;-75
2023/01/12 07:59:09;;;;;;;2.35;1.20;;;;;;;8.16;100.00;100425.19;5099628;28;20496;-74
2023/01/12 08:01:34;;;;;;;3.10;1.48;;;;;;;8.18;100.00;100429.28;5108761;28;20462;-74
2023/01/12 08:04:00;;;;;;;3.35;1.20;;;;;;;8.19;100.00;100440.72;5097711;28;20032;-74
2023/01/12 08:06:25;;;;;;;2.70;1.30;;;;;;;8.11;100.00;100423.91;5088748;28;20043;-74
2023/01/12 08:08:52;;;;;;;1.75;1.35;;;;;;;8.21;100.00;100430.75;5089389;28;20059;-74
2023/01/12 08:11:18;;;;;;;3.72;1.23;;;;;;;8.21;100.00;100436.88;5089126;28;20048;-74
2023/01/12 08:13:43;;;;;;;5.18;1.70;;;;;;;8.21;100.00;100420.94;5089339;28;20059;-74
2023/01/12 08:16:16;;;;;;;4.03;1.27;;;;;;;8.22;100.00;100438.50;5090010;28;20032;-74
2023/01/12 08:18:52;;;;;;;4.65;1.35;;;;;;;8.22;100.00;100429.72;5090065;28;20023;-74
2023/01/12 08:21:23;;;;;;;4.03;1.20;;;;;;;8.27;100.00;100424.66;5090004;28;20030;-74
2023/01/12 08:23:54;;;;;;;4.55;1.42;;;;;;;8.22;100.00;100430.53;5089479;28;20024;-74
2023/01/12 08:26:26;;;;;;;1.42;0.75;;;;;;;8.28;100.00;100439.59;5090085;28;20081;-74
2023/01/12 08:29:01;;;;;;;1.95;1.10;;;;;;;8.30;100.00;100441.00;5089876;28;20036;-74
2023/01/12 08:31:27;;;;;;;2.60;1.27;;;;;;;8.33;100.00;100443.31;5087972;28;20023;-75
2023/01/12 08:33:54;;;;;;;3.08;1.40;;;;;;;8.35;100.00;100446.56;5092832;28;20028;-76
2023/01/12 08:36:20;;;;;;;2.42;1.23;;;;;;;8.39;100.00;100444.41;5093608;28;20107;-76
2023/01/12 08:38:46;;;;;;;2.63;0.90;;;;;;;8.38;100.00;100448.03;5091746;28;20197;-74
2023/01/12 08:44:01;;;;;;;2.22;1.33;;;;;;;8.37;100.00;100445.59;5090222;28;20109;-76
2023/01/12 08:46:45;;;;;;;6.07;1.23;;;;;;;8.44;100.00;100457.94;5093228;28;20028;-76
2023/01/12 08:49:12;;;;;;;1.60;1.05;;;;;;;8.45;100.00;100464.06;5092518;28;20036;-76
2023/01/12 08:51:40;;;;;;;1.70;0.95;;;;;;;8.45;100.00;100467.53;5091275;28;20457;-76
2023/01/12 08:54:09;;;;;;;1.67;0.80;;;;;;;8.49;100.00;100463.50;5093344;28;20043;-75
2023/01/12 08:56:34;;;;;;;3.00;1.20;;;;;;;8.49;100.00;100454.72;5091939;28;20020;-76
2023/01/12 08:59:00;;;;;;;2.83;1.67;;;;;;;8.50;100.00;100467.78;5091610;28;20020;-77
2023/01/12 09:01:26;;;;;;;1.73;0.70;;;;;;;8.50;100.00;100464.31;5067781;28;20035;-77
2023/01/12 09:03:52;;;;;;;3.60;1.00;;;;;;;8.53;100.00;100477.22;5090383;28;20376;-75
2023/01/12 09:06:20;;;;;;;1.90;0.93;;;;;;;8.53;100.00;100461.28;5094111;28;20137;-76
2023/01/12 09:08:47;;;;;;;6.43;1.63;;;;;;;8.59;100.00;100471.13;5092997;28;20027;-76
2023/01/12 09:11:14;;;;;;;3.35;1.10;;;;;;;8.62;100.00;100480.53;5089668;28;20124;-76
2023/01/12 09:13:40;;;;;;;2.35;1.15;;;;;;;8.65;100.00;100472.22;5090767;28;20020;-75
2023/01/12 09:16:08;;;;;;;1.65;0.95;;;;;;;8.68;100.00;100483.28;5092683;28;20493;-76
2023/01/12 09:18:34;;;;;;;3.10;1.20;;;;;;;8.68;100.00;100474.47;5094419;28;20643;-75
2023/01/12 09:21:13;;;;;;;2.13;0.98;;;;;;;8.69;100.00;100471.59;5094914;28;20467;-78
2023/01/12 09:23:40;;;;;;;1.35;1.23;;;;;;;8.74;100.00;100476.34;5094973;28;20031;-74
2023/01/12 09:26:17;;;;;;;1.48;0.80;;;;;;;8.75;100.00;100481.50;5098168;28;20039;-76
2023/01/12 09:28:43;;;;;;;2.50;0.90;;;;;;;8.78;100.00;100497.03;5095262;28;20026;-76
2023/01/12 09:31:12;;;;;;;0.80;0.80;;;;;;;8.75;100.00;100486.81;5094537;28;20509;-76
2023/01/12 09:33:39;;;;;;;1.55;1.08;;;;;;;8.80;100.00;100494.19;5095644;28;20032;-76
2023/01/12 09:36:10;;;;;;;2.45;1.00;;;;;;;8.84;100.00;100491.97;5097070;28;20103;-75
2023/01/12 09:38:38;;;;;;;3.10;1.20;;;;;;;8.84;100.00;100492.78;5094405;28;20535;-75
2023/01/12 09:46:57;;;;;;;4.35;1.98;;;;;;;8.86;100.00;100495.25;5096483;28;20081;-75
2023/01/12 09:47:33;;;;;;;1.13;0.75;;;;;;;8.88;100.00;100518.00;5097088;28;20047;-76
2023/01/12 09:50:01;;;;;;;1.30;0.90;;;;;;;8.85;100.00;100505.06;5084855;28;20162;-75
2023/01/12 09:52:31;;;;;;;2.45;1.02;;;;;;;8.87;100.00;100512.84;5095063;28;20074;-79
2023/01/12 09:54:57;;;;;;;2.78;1.00;;;;;;;8.91;100.00;100522.09;5110159;28;20020;-79
2023/01/12 09:57:45;;;;;;;1.60;1.33;;;;;;;8.89;100.00;100514.31;5108930;28;20486;-78
2023/01/12 10:00:13;;;;;;;0.75;0.75;;;;;;;8.91;100.00;100514.94;5091343;28;20042;-78
2023/01/12 10:02:42;;;;;;;0.93;0.80;;;;;;;8.91;100.00;100522.09;5091211;28;20020;-78
2023/01/12 10:05:33;;;;;;;1.92;0.77;;;;;;;8.91;100.00;100514.94;5092560;28;20498;-78
2023/01/12 10:07:58;;;;;;;2.38;0.85;;;;;;;8.98;100.00;100521.09;5091079;28;20461;-77
2023/01/12 10:10:23;;;;;;;1.73;0.88;;;;;;;8.99;100.00;100535.25;5096032;28;20055;-76
2023/01/12 10:12:54;;;;;;;2.78;1.23;;;;;;;9.05;100.00;100529.16;5093406;28;20516;-76
2023/01/12 10:15:35;;;;;;;1.43;0.73;;;;;;;9.10;100.00;100518.75;5111862;28;20463;-77
2023/01/12 10:18:07;;;;;;;3.97;0.85;;;;;;;9.08;100.00;100527.94;5098587;28;20111;-76
2023/01/12 10:20:43;;;;;;;1.95;0.98;;;;;;;9.10;100.00;100540.03;5092265;28;20063;-76
2023/01/12 10:23:08;;;;;;;3.75;1.02;;;;;;;9.13;100.00;100554.78;5092221;28;20028;-76
2023/01/12 10:25:34;;;;;;;3.22;0.65;;;;;;;9.16;100.00;100539.22;5091563;28;20463;-76
2023/01/12 10:28:06;;;;;;;1.15;0.80;;;;;;;9.14;100.00;100546.63;5092003;28;20036;-76
2023/01/12 10:30:38;;;;;;;3.70;1.38;;;;;;;9.11;100.00;100546.97;5092129;28;20094;-76
2023/01/12 10:33:20;;;;;;;;;;;;;;;9.14;100.00;100543.97;5092928;28;20475;-76
2023/01/12 10:35:59;;;;;;;1.50;0.93;;;;;;;9.08;100.00;100539.38;5092193;28;19908;-76
2023/01/12 10:38:37;;;;;;;1.73;0.98;;;;;;;9.12;100.00;100545.16;5101914;28;20047;-76
2023/01/12 10:41:15;;;;;;;0.63;0.63;;;;;;;9.09;100.00;100546.38;5111486;28;20505;-76
2023/01/12 10:43:42;;;;;;;1.77;1.08;;;;;;;9.11;100.00;100536.34;5111518;28;20031;-76
2023/01/12 10:46:16;;;;;;;1.00;0.90;;;;;;;9.10;100.00;100533.88;5111456;28;20031;-76
2023/01/12 10:48:47;;;;;;;5.13;0.88;;;;;;;9.11;100.00;100541.66;5103705;28;20489;-76
2023/01/12 10:51:26;;;;;;;1.75;0.60;;;;;;;9.13;100.00;100529.00;5091550;28;20133;-76
2023/01/12 10:53:57;;;;;;;1.17;0.70;;;;;;;9.15;100.00;100531.47;5091668;28;20026;-77
2023/01/12 10:56:36;;;;;;;0.70;0.70;;;;;;;9.18;100.00;100529.22;5105183;28;20030;-76
2023/01/12 10:59:16;;;;;;;0.60;0.60;;;;;;;9.14;100.00;100519.16;5091506;28;20024;-76
2023/01/12 11:01:45;;;;;;;1.30;0.82;;;;;;;9.16;100.00;100528.59;5091531;28;20364;-76
2023/01/12 11:04:13;;;;;;;0.60;0.60;;;;;;;9.18;100.00;100518.59;5091408;28;20035;-76
2023/01/12 11:06:43;;;;;;;1.00;0.75;;;;;;;9.16;100.00;100522.47;5091415;28;20477;-76
2023/01/12 11:09:21;;;;;;;0.82;0.80;;;;;;;9.20;100.00;100518.41;5090069;28;20127;-76
2023/01/12 11:11:52;;;;;;;0.80;0.80;;;;;;;9.23;100.00;100525.16;5091463;28;20039;-76
2023/01/12 11:14:37;;;;;;;0.70;0.70;;;;;;;9.18;100.00;100526.56;5090110;28;20036;-77
2023/01/12 11:17:30;;;;;;;1.13;0.90;;;;;;;9.25;100.00;100526.63;5089863;28;20024;-76
2023/01/12 11:19:59;;;;;;;1.60;1.23;;;;;;;9.30;100.00;100529.53;5091419;28;20372;-77
2023/01/12 11:22:28;;;;;;;0.73;0.73;;;;;;;9.25;100.00;100515.97;5091091;28;20070;-76
2023/01/12 11:25:01;;;;;;;1.92;1.65;;;;;;;9.32;100.00;100511.50;5091084;28;20061;-77
2023/01/12 11:27:45;;;;;;;1.00;0.90;;;;;;;9.34;100.00;100528.09;5089640;28;20028;-76
2023/01/12 11:30:14;;;;;;;5.07;1.15;;;;;;;9.34;100.00;100521.94;5090953;28;20035;-77
2023/01/12 11:32:55;;;;;;;2.13;0.90;;;;;;;9.37;100.00;100510.91;5090913;28;20465;-77
2023/01/12 11:35:40;;;;;;;0.70;0.70;;;;;;;9.35;100.00;100531.56;5090904;28;20399;-76
2023/01/12 11:38:19;;;;;;;0.60;0.60;;;;;;;9.37;100.00;100510.91;5090522;28;20023;-76
2023/01/12 11:40:46;;;;;;;2.15;0.98;;;;;;;9.39;100.00;100519.53;5090622;28;20028;-77
2023/01/12 11:43:56;;;;;;;1.00;0.90;;;;;;;9.39;100.00;100527.50;5090716;28;20077;-76
2023/01/12 11:46:43;;;;;;;1.15;0.98;;;;;;;9.38;100.00;100528.53;5090807;28;20111;-76
2023/01/12 11:49:42;;;;;;;0.82;0.82;;;;;;;9.36;100.00;100523.41;5090575;28;20487;-76
2023/01/12 11:52:10;;;;;;;0.82;0.73;;;;;;;9.35;100.00;100527.09;5090646;28;20071;-76
2023/01/12 11:54:37;;;;;;;2.97;1.27;;;;;;;9.33;100.00;100517.66;5089219;28;20028;-76
2023/01/12 11:57:05;;;;;;;1.05;0.60;;;;;;;9.34;100.00;100522.75;5089085;28;20039;-76
2023/01/12 11:59:56;;;;;;;2.95;0.90;;;;;;;9.35;100.00;100512.94;5089072;28;20046;-76
2023/01/12 12:02:39;;;;;;;0.75;0.65;;;;;;;9.34;100.00;100513.97;5089144;28;20028;-78
2023/01/12 12:05:38;;;;;;;0.80;0.80;;;;;;;9.33;100.00;100510.50;5090814;28;20027;-78
2023/01/12 12:08:19;;;;;;;2.28;0.90;;;;;;;9.31;100.00;100506.38;5096022;28;20676;-80